sensor_id;sensor_type;location;lat;lon;timestamp;P1;durP1;ratioP1;P2;durP2;ratioP2
44036;SDS011;62488;-37.670;-63.532;2023-03-14T00:02:16;5.55;;;3.58;;
44036;SDS011;62488;-37.670;-63.532;2023-03-14T00:04:43;4.40;;;3.75;;
44036;SDS011;62488;-37.670;-63.532;2023-03-14T00:07:10;7.78;;;4.15;;
44036;SDS011;62488;-37.670;-63.532;2023-03-14T00:09:38;6.85;;;3.92;;
44036;SDS011;62488;-37.670;-63.532;2023-03-14T00:12:05;7.10;;;4.07;;
44036;SDS011;62488;-37.670;-63.532;2023-03-14T00:14:33;10.63;;;6.63;;
44036;SDS011;62488;-37.670;-63.532;2023-03-14T00:17:00;11.88;;;7.72;;
44036;SDS011;62488;-37.670;-63.532;2023-03-14T00:19:27;25.02;;;13.10;;
44036;SDS011;62488;-37.670;-63.532;2023-03-14T00:21:54;13.55;;;8.95;;
44036;SDS011;62488;-37.670;-63.532;2023-03-14T00:24:21;17.85;;;12.07;;
44036;SDS011;62488;-37.670;-63.532;2023-03-14T00:26:48;16.25;;;9.88;;
44036;SDS011;62488;-37.670;-63.532;2023-03-14T00:29:15;16.60;;;9.35;;
44036;SDS011;62488;-37.670;-63.532;2023-03-14T00:31:42;19.45;;;8.95;;
44036;SDS011;62488;-37.670;-63.532;2023-03-14T00:34:09;19.35;;;5.72;;
44036;SDS011;62488;-37.670;-63.532;2023-03-14T00:36:36;14.48;;;4.82;;
44036;SDS011;62488;-37.670;-63.532;2023-03-14T00:39:03;17.13;;;4.55;;
44036;SDS011;62488;-37.670;-63.532;2023-03-14T01:16:30;5.38;;;3.95;;
44036;SDS011;62488;-37.670;-63.532;2023-03-14T01:19:04;5.47;;;4.53;;
44036;SDS011;62488;-37.670;-63.532;2023-03-14T01:21:35;5.55;;;4.50;;
44036;SDS011;62488;-37.670;-63.532;2023-03-14T01:24:03;6.70;;;5.53;;
44036;SDS011;62488;-37.670;-63.532;2023-03-14T01:26:32;7.97;;;6.53;;
44036;SDS011;62488;-37.670;-63.532;2023-03-14T01:29:09;7.40;;;6.35;;
44036;SDS011;62488;-37.670;-63.532;2023-03-14T01:31:37;5.22;;;4.82;;
44036;SDS011;62488;-37.670;-63.532;2023-03-14T01:34:07;10.77;;;5.65;;
44036;SDS011;62488;-37.670;-63.532;2023-03-14T01:36:34;7.00;;;6.30;;
44036;SDS011;62488;-37.670;-63.532;2023-03-14T01:39:02;7.10;;;6.45;;
44036;SDS011;62488;-37.670;-63.532;2023-03-14T01:41:32;7.55;;;5.25;;
44036;SDS011;62488;-37.670;-63.532;2023-03-14T01:43:59;7.30;;;5.82;;
44036;SDS011;62488;-37.670;-63.532;2023-03-14T01:49:04;7.57;;;6.90;;
44036;SDS011;62488;-37.670;-63.532;2023-03-14T01:52:02;11.15;;;6.88;;
44036;SDS011;62488;-37.670;-63.532;2023-03-14T01:54:42;9.45;;;6.20;;
44036;SDS011;62488;-37.670;-63.532;2023-03-14T01:57:20;10.10;;;7.13;;
44036;SDS011;62488;-37.670;-63.532;2023-03-14T01:59:52;12.18;;;8.50;;
44036;SDS011;62488;-37.670;-63.532;2023-03-14T02:02:32;7.30;;;6.80;;
44036;SDS011;62488;-37.670;-63.532;2023-03-14T02:05:03;7.88;;;7.07;;
44036;SDS011;62488;-37.670;-63.532;2023-03-14T02:07:35;9.73;;;7.43;;
44036;SDS011;62488;-37.670;-63.532;2023-03-14T02:10:16;10.35;;;8.00;;
44036;SDS011;62488;-37.670;-63.532;2023-03-14T02:12:46;8.00;;;7.30;;
44036;SDS011;62488;-37.670;-63.532;2023-03-14T02:15:17;8.63;;;7.90;;
44036;SDS011;62488;-37.670;-63.532;2023-03-14T02:17:47;13.25;;;8.55;;
44036;SDS011;62488;-37.670;-63.532;2023-03-14T02:22:50;7.60;;;6.97;;
44036;SDS011;62488;-37.670;-63.532;2023-03-14T02:28:28;8.65;;;7.82;;
44036;SDS011;62488;-37.670;-63.532;2023-03-14T02:30:55;9.75;;;9.05;;
44036;SDS011;62488;-37.670;-63.532;2023-03-14T02:33:31;9.38;;;8.32;;
44036;SDS011;62488;-37.670;-63.532;2023-03-14T02:35:59;8.25;;;7.63;;
44036;SDS011;62488;-37.670;-63.532;2023-03-14T02:41:24;8.98;;;8.23;;
44036;SDS011;62488;-37.670;-63.532;2023-03-14T02:43:54;8.95;;;8.27;;
44036;SDS011;62488;-37.670;-63.532;2023-03-14T02:46:21;8.95;;;8.15;;
44036;SDS011;62488;-37.670;-63.532;2023-03-14T02:48:53;12.15;;;8.55;;
44036;SDS011;62488;-37.670;-63.532;2023-03-14T02:51:26;11.43;;;9.65;;
44036;SDS011;62488;-37.670;-63.532;2023-03-14T02:53:59;8.73;;;8.02;;
44036;SDS011;62488;-37.670;-63.532;2023-03-14T02:56:26;8.20;;;7.50;;
44036;SDS011;62488;-37.670;-63.532;2023-03-14T03:11:33;9.90;;;9.07;;
44036;SDS011;62488;-37.670;-63.532;2023-03-14T03:14:00;10.85;;;9.80;;
44036;SDS011;62488;-37.670;-63.532;2023-03-14T03:16:29;10.13;;;9.18;;
44036;SDS011;62488;-37.670;-63.532;2023-03-14T03:18:56;11.38;;;10.35;;
44036;SDS011;62488;-37.670;-63.532;2023-03-14T03:21:23;13.70;;;12.50;;
44036;SDS011;62488;-37.670;-63.532;2023-03-14T03:23:50;13.07;;;11.70;;
44036;SDS011;62488;-37.670;-63.532;2023-03-14T03:26:17;14.25;;;13.15;;
44036;SDS011;62488;-37.670;-63.532;2023-03-14T03:28:44;12.82;;;11.68;;
44036;SDS011;62488;-37.670;-63.532;2023-03-14T03:31:11;12.82;;;11.50;;
44036;SDS011;62488;-37.670;-63.532;2023-03-14T03:33:38;13.57;;;12.32;;
44036;SDS011;62488;-37.670;-63.532;2023-03-14T03:36:06;16.73;;;15.40;;
44036;SDS011;62488;-37.670;-63.532;2023-03-14T03:38:34;13.85;;;12.55;;
44036;SDS011;62488;-37.670;-63.532;2023-03-14T03:41:05;12.90;;;11.98;;
44036;SDS011;62488;-37.670;-63.532;2023-03-14T03:43:33;11.32;;;10.23;;
44036;SDS011;62488;-37.670;-63.532;2023-03-14T03:46:04;12.45;;;11.13;;
44036;SDS011;62488;-37.670;-63.532;2023-03-14T03:48:32;14.13;;;12.27;;
44036;SDS011;62488;-37.670;-63.532;2023-03-14T03:50:59;14.02;;;12.80;;
44036;SDS011;62488;-37.670;-63.532;2023-03-14T03:53:26;11.23;;;10.43;;
44036;SDS011;62488;-37.670;-63.532;2023-03-14T03:55:54;11.10;;;10.30;;
44036;SDS011;62488;-37.670;-63.532;2023-03-14T03:58:21;11.95;;;10.93;;
44036;SDS011;62488;-37.670;-63.532;2023-03-14T04:00:48;11.35;;;10.38;;
44036;SDS011;62488;-37.670;-63.532;2023-03-14T04:03:15;12.90;;;10.45;;
44036;SDS011;62488;-37.670;-63.532;2023-03-14T04:05:42;10.45;;;9.55;;
44036;SDS011;62488;-37.670;-63.532;2023-03-14T04:08:09;11.05;;;9.95;;
44036;SDS011;62488;-37.670;-63.532;2023-03-14T04:10:36;10.55;;;9.55;;
44036;SDS011;62488;-37.670;-63.532;2023-03-14T04:13:03;10.90;;;9.80;;
44036;SDS011;62488;-37.670;-63.532;2023-03-14T04:15:30;12.15;;;10.75;;
44036;SDS011;62488;-37.670;-63.532;2023-03-14T04:17:57;12.32;;;11.20;;
44036;SDS011;62488;-37.670;-63.532;2023-03-14T04:20:24;13.50;;;12.30;;
44036;SDS011;62488;-37.670;-63.532;2023-03-14T04:22:51;13.98;;;11.20;;
44036;SDS011;62488;-37.670;-63.532;2023-03-14T04:25:18;16.13;;;12.18;;
44036;SDS011;62488;-37.670;-63.532;2023-03-14T04:27:46;13.48;;;12.18;;
44036;SDS011;62488;-37.670;-63.532;2023-03-14T04:30:13;14.48;;;13.27;;
44036;SDS011;62488;-37.670;-63.532;2023-03-14T04:32:40;13.20;;;12.10;;
44036;SDS011;62488;-37.670;-63.532;2023-03-14T04:35:08;14.02;;;12.60;;
44036;SDS011;62488;-37.670;-63.532;2023-03-14T04:37:35;16.23;;;14.93;;
44036;SDS011;62488;-37.670;-63.532;2023-03-14T04:40:02;17.55;;;16.08;;
44036;SDS011;62488;-37.670;-63.532;2023-03-14T04:42:31;17.10;;;15.75;;
44036;SDS011;62488;-37.670;-63.532;2023-03-14T04:44:58;14.45;;;13.23;;
44036;SDS011;62488;-37.670;-63.532;2023-03-14T04:47:26;17.63;;;16.13;;
44036;SDS011;62488;-37.670;-63.532;2023-03-14T04:49:53;15.90;;;14.60;;
44036;SDS011;62488;-37.670;-63.532;2023-03-14T04:52:20;15.18;;;13.98;;
44036;SDS011;62488;-37.670;-63.532;2023-03-14T04:54:47;13.45;;;12.32;;
44036;SDS011;62488;-37.670;-63.532;2023-03-14T04:57:14;15.60;;;14.13;;
44036;SDS011;62488;-37.670;-63.532;2023-03-14T04:59:41;14.13;;;12.73;;
44036;SDS011;62488;-37.670;-63.532;2023-03-14T05:02:09;15.75;;;14.13;;
44036;SDS011;62488;-37.670;-63.532;2023-03-14T05:04:36;16.23;;;14.50;;
44036;SDS011;62488;-37.670;-63.532;2023-03-14T05:07:03;14.88;;;13.38;;
44036;SDS011;62488;-37.670;-63.532;2023-03-14T05:09:30;15.93;;;14.52;;
44036;SDS011;62488;-37.670;-63.532;2023-03-14T05:11:57;14.43;;;13.15;;
44036;SDS011;62488;-37.670;-63.532;2023-03-14T05:14:24;14.57;;;12.95;;
44036;SDS011;62488;-37.670;-63.532;2023-03-14T05:16:51;15.52;;;14.10;;
44036;SDS011;62488;-37.670;-63.532;2023-03-14T05:19:18;14.63;;;13.02;;
44036;SDS011;62488;-37.670;-63.532;2023-03-14T05:21:45;16.75;;;15.27;;
44036;SDS011;62488;-37.670;-63.532;2023-03-14T05:24:12;17.27;;;15.68;;
44036;SDS011;62488;-37.670;-63.532;2023-03-14T05:26:39;16.25;;;14.88;;
44036;SDS011;62488;-37.670;-63.532;2023-03-14T05:29:06;16.08;;;14.38;;
44036;SDS011;62488;-37.670;-63.532;2023-03-14T05:31:33;17.42;;;16.10;;
44036;SDS011;62488;-37.670;-63.532;2023-03-14T05:34:00;17.33;;;15.93;;
44036;SDS011;62488;-37.670;-63.532;2023-03-14T05:36:27;16.67;;;15.23;;
44036;SDS011;62488;-37.670;-63.532;2023-03-14T05:38:54;18.92;;;17.33;;
44036;SDS011;62488;-37.670;-63.532;2023-03-14T05:41:21;15.10;;;14.00;;
44036;SDS011;62488;-37.670;-63.532;2023-03-14T05:43:48;18.15;;;16.45;;
44036;SDS011;62488;-37.670;-63.532;2023-03-14T05:46:15;16.00;;;14.60;;
44036;SDS011;62488;-37.670;-63.532;2023-03-14T05:48:42;18.00;;;16.20;;
44036;SDS011;62488;-37.670;-63.532;2023-03-14T05:51:09;16.80;;;15.40;;
44036;SDS011;62488;-37.670;-63.532;2023-03-14T05:53:36;18.17;;;16.48;;
44036;SDS011;62488;-37.670;-63.532;2023-03-14T05:56:03;20.73;;;18.67;;
44036;SDS011;62488;-37.670;-63.532;2023-03-14T05:58:30;19.25;;;17.73;;
44036;SDS011;62488;-37.670;-63.532;2023-03-14T06:01:00;21.27;;;19.35;;
44036;SDS011;62488;-37.670;-63.532;2023-03-14T06:03:28;24.23;;;21.90;;
44036;SDS011;62488;-37.670;-63.532;2023-03-14T06:05:56;25.23;;;22.92;;
44036;SDS011;62488;-37.670;-63.532;2023-03-14T06:08:23;24.73;;;22.33;;
44036;SDS011;62488;-37.670;-63.532;2023-03-14T06:10:51;25.83;;;23.63;;
44036;SDS011;62488;-37.670;-63.532;2023-03-14T06:13:18;29.95;;;26.67;;
44036;SDS011;62488;-37.670;-63.532;2023-03-14T06:15:45;29.88;;;27.20;;
44036;SDS011;62488;-37.670;-63.532;2023-03-14T06:18:13;30.02;;;27.13;;
44036;SDS011;62488;-37.670;-63.532;2023-03-14T06:20:41;32.58;;;29.65;;
44036;SDS011;62488;-37.670;-63.532;2023-03-14T06:23:08;29.00;;;26.13;;
44036;SDS011;62488;-37.670;-63.532;2023-03-14T06:25:35;28.00;;;25.40;;
44036;SDS011;62488;-37.670;-63.532;2023-03-14T06:28:02;33.58;;;29.95;;
44036;SDS011;62488;-37.670;-63.532;2023-03-14T06:30:29;31.77;;;28.70;;
44036;SDS011;62488;-37.670;-63.532;2023-03-14T06:32:56;31.85;;;28.95;;
44036;SDS011;62488;-37.670;-63.532;2023-03-14T06:35:24;30.70;;;27.95;;
44036;SDS011;62488;-37.670;-63.532;2023-03-14T06:37:51;35.75;;;32.45;;
44036;SDS011;62488;-37.670;-63.532;2023-03-14T06:40:19;35.30;;;32.10;;
44036;SDS011;62488;-37.670;-63.532;2023-03-14T06:42:46;35.90;;;32.53;;
44036;SDS011;62488;-37.670;-63.532;2023-03-14T06:45:14;36.55;;;32.90;;
44036;SDS011;62488;-37.670;-63.532;2023-03-14T06:47:41;39.08;;;35.03;;
44036;SDS011;62488;-37.670;-63.532;2023-03-14T06:50:08;41.45;;;37.15;;
44036;SDS011;62488;-37.670;-63.532;2023-03-14T06:52:36;38.85;;;34.10;;
44036;SDS011;62488;-37.670;-63.532;2023-03-14T06:55:06;38.58;;;34.85;;
44036;SDS011;62488;-37.670;-63.532;2023-03-14T06:57:34;39.47;;;35.45;;
44036;SDS011;62488;-37.670;-63.532;2023-03-14T07:00:02;40.50;;;36.50;;
44036;SDS011;62488;-37.670;-63.532;2023-03-14T07:02:30;40.42;;;36.08;;
44036;SDS011;62488;-37.670;-63.532;2023-03-14T07:04:57;40.25;;;36.15;;
44036;SDS011;62488;-37.670;-63.532;2023-03-14T07:07:24;44.05;;;38.55;;
44036;SDS011;62488;-37.670;-63.532;2023-03-14T07:09:51;39.85;;;35.85;;
44036;SDS011;62488;-37.670;-63.532;2023-03-14T07:12:18;38.03;;;34.17;;
44036;SDS011;62488;-37.670;-63.532;2023-03-14T07:14:46;41.47;;;37.20;;
44036;SDS011;62488;-37.670;-63.532;2023-03-14T07:17:13;41.42;;;37.13;;
44036;SDS011;62488;-37.670;-63.532;2023-03-14T07:19:41;44.72;;;37.95;;
44036;SDS011;62488;-37.670;-63.532;2023-03-14T07:22:08;39.78;;;35.63;;
44036;SDS011;62488;-37.670;-63.532;2023-03-14T07:24:35;42.15;;;37.67;;
44036;SDS011;62488;-37.670;-63.532;2023-03-14T07:27:02;41.70;;;37.15;;
44036;SDS011;62488;-37.670;-63.532;2023-03-14T07:29:29;32.60;;;29.70;;
44036;SDS011;62488;-37.670;-63.532;2023-03-14T07:31:57;41.28;;;37.17;;
44036;SDS011;62488;-37.670;-63.532;2023-03-14T07:34:24;41.00;;;36.60;;
44036;SDS011;62488;-37.670;-63.532;2023-03-14T07:36:51;39.00;;;35.13;;
44036;SDS011;62488;-37.670;-63.532;2023-03-14T07:39:18;41.97;;;37.72;;
44036;SDS011;62488;-37.670;-63.532;2023-03-14T07:41:45;38.22;;;34.42;;
44036;SDS011;62488;-37.670;-63.532;2023-03-14T07:44:12;43.95;;;39.00;;
44036;SDS011;62488;-37.670;-63.532;2023-03-14T07:46:39;37.42;;;33.88;;
44036;SDS011;62488;-37.670;-63.532;2023-03-14T07:49:06;37.42;;;33.72;;
44036;SDS011;62488;-37.670;-63.532;2023-03-14T07:51:33;36.47;;;32.88;;
44036;SDS011;62488;-37.670;-63.532;2023-03-14T07:54:00;42.30;;;37.30;;
44036;SDS011;62488;-37.670;-63.532;2023-03-14T07:56:27;43.38;;;38.85;;
44036;SDS011;62488;-37.670;-63.532;2023-03-14T07:58:54;44.08;;;38.80;;
44036;SDS011;62488;-37.670;-63.532;2023-03-14T08:01:22;51.58;;;44.83;;
44036;SDS011;62488;-37.670;-63.532;2023-03-14T08:03:49;42.65;;;38.13;;
44036;SDS011;62488;-37.670;-63.532;2023-03-14T08:06:16;49.88;;;42.35;;
44036;SDS011;62488;-37.670;-63.532;2023-03-14T08:08:43;48.00;;;41.47;;
44036;SDS011;62488;-37.670;-63.532;2023-03-14T08:11:10;56.17;;;47.17;;
44036;SDS011;62488;-37.670;-63.532;2023-03-14T08:13:37;54.97;;;45.55;;
44036;SDS011;62488;-37.670;-63.532;2023-03-14T08:16:05;60.75;;;45.95;;
44036;SDS011;62488;-37.670;-63.532;2023-03-14T08:18:32;57.13;;;47.45;;
44036;SDS011;62488;-37.670;-63.532;2023-03-14T08:20:59;52.03;;;46.38;;
44036;SDS011;62488;-37.670;-63.532;2023-03-14T08:23:26;53.85;;;46.90;;
44036;SDS011;62488;-37.670;-63.532;2023-03-14T08:25:53;48.00;;;42.97;;
44036;SDS011;62488;-37.670;-63.532;2023-03-14T08:28:20;42.28;;;38.17;;
44036;SDS011;62488;-37.670;-63.532;2023-03-14T08:30:47;47.15;;;42.30;;
44036;SDS011;62488;-37.670;-63.532;2023-03-14T08:33:14;48.90;;;43.78;;
44036;SDS011;62488;-37.670;-63.532;2023-03-14T08:35:41;50.22;;;44.78;;
44036;SDS011;62488;-37.670;-63.532;2023-03-14T08:38:08;42.17;;;37.85;;
44036;SDS011;62488;-37.670;-63.532;2023-03-14T08:40:35;41.05;;;36.78;;
44036;SDS011;62488;-37.670;-63.532;2023-03-14T08:43:02;50.50;;;45.15;;
44036;SDS011;62488;-37.670;-63.532;2023-03-14T08:45:29;64.57;;;52.05;;
44036;SDS011;62488;-37.670;-63.532;2023-03-14T08:47:57;57.08;;;50.88;;
44036;SDS011;62488;-37.670;-63.532;2023-03-14T08:50:24;57.92;;;50.03;;
44036;SDS011;62488;-37.670;-63.532;2023-03-14T08:52:52;50.88;;;43.92;;
44036;SDS011;62488;-37.670;-63.532;2023-03-14T08:55:19;54.70;;;47.75;;
44036;SDS011;62488;-37.670;-63.532;2023-03-14T08:57:46;63.38;;;51.97;;
44036;SDS011;62488;-37.670;-63.532;2023-03-14T09:00:13;62.05;;;53.15;;
44036;SDS011;62488;-37.670;-63.532;2023-03-14T09:02:41;57.60;;;51.15;;
44036;SDS011;62488;-37.670;-63.532;2023-03-14T09:05:08;56.30;;;49.80;;
44036;SDS011;62488;-37.670;-63.532;2023-03-14T09:07:36;54.25;;;48.38;;
44036;SDS011;62488;-37.670;-63.532;2023-03-14T09:10:03;52.50;;;46.90;;
44036;SDS011;62488;-37.670;-63.532;2023-03-14T09:12:31;54.40;;;48.22;;
44036;SDS011;62488;-37.670;-63.532;2023-03-14T09:14:58;62.40;;;49.85;;
44036;SDS011;62488;-37.670;-63.532;2023-03-14T09:17:25;64.97;;;52.17;;
44036;SDS011;62488;-37.670;-63.532;2023-03-14T09:19:55;58.22;;;51.38;;
44036;SDS011;62488;-37.670;-63.532;2023-03-14T09:22:22;57.83;;;50.90;;
44036;SDS011;62488;-37.670;-63.532;2023-03-14T09:24:49;55.42;;;49.40;;
44036;SDS011;62488;-37.670;-63.532;2023-03-14T09:27:16;65.03;;;54.08;;
44036;SDS011;62488;-37.670;-63.532;2023-03-14T09:29:43;70.88;;;56.03;;
44036;SDS011;62488;-37.670;-63.532;2023-03-14T09:32:10;67.28;;;56.67;;
44036;SDS011;62488;-37.670;-63.532;2023-03-14T09:34:37;69.30;;;56.20;;
44036;SDS011;62488;-37.670;-63.532;2023-03-14T09:37:04;58.63;;;50.95;;
44036;SDS011;62488;-37.670;-63.532;2023-03-14T09:39:31;58.42;;;51.90;;
44036;SDS011;62488;-37.670;-63.532;2023-03-14T09:41:58;55.38;;;49.55;;
44036;SDS011;62488;-37.670;-63.532;2023-03-14T09:44:33;63.03;;;55.80;;
44036;SDS011;62488;-37.670;-63.532;2023-03-14T09:47:06;61.22;;;54.20;;
44036;SDS011;62488;-37.670;-63.532;2023-03-14T09:49:39;61.95;;;55.13;;
44036;SDS011;62488;-37.670;-63.532;2023-03-14T09:52:11;55.80;;;49.72;;
44036;SDS011;62488;-37.670;-63.532;2023-03-14T09:54:46;42.97;;;38.85;;
44036;SDS011;62488;-37.670;-63.532;2023-03-14T09:57:21;45.75;;;40.85;;
44036;SDS011;62488;-37.670;-63.532;2023-03-14T09:59:56;57.25;;;51.17;;
44036;SDS011;62488;-37.670;-63.532;2023-03-14T10:02:40;48.35;;;43.40;;
44036;SDS011;62488;-37.670;-63.532;2023-03-14T10:05:15;52.40;;;47.00;;
44036;SDS011;62488;-37.670;-63.532;2023-03-14T10:07:44;49.58;;;44.30;;
44036;SDS011;62488;-37.670;-63.532;2023-03-14T10:10:13;41.47;;;37.80;;
44036;SDS011;62488;-37.670;-63.532;2023-03-14T10:15:31;49.42;;;44.35;;
44036;SDS011;62488;-37.670;-63.532;2023-03-14T10:18:01;55.50;;;49.65;;
44036;SDS011;62488;-37.670;-63.532;2023-03-14T10:20:36;48.03;;;43.28;;
44036;SDS011;62488;-37.670;-63.532;2023-03-14T10:23:16;49.88;;;44.72;;
44036;SDS011;62488;-37.670;-63.532;2023-03-14T10:28:31;51.78;;;46.45;;
44036;SDS011;62488;-37.670;-63.532;2023-03-14T10:31:22;35.15;;;31.52;;
44036;SDS011;62488;-37.670;-63.532;2023-03-14T10:34:12;36.15;;;32.85;;
44036;SDS011;62488;-37.670;-63.532;2023-03-14T10:36:55;33.75;;;30.60;;
44036;SDS011;62488;-37.670;-63.532;2023-03-14T10:39:40;35.92;;;32.75;;
44036;SDS011;62488;-37.670;-63.532;2023-03-14T10:42:26;51.60;;;42.37;;
44036;SDS011;62488;-37.670;-63.532;2023-03-14T10:45:03;46.60;;;41.55;;
44036;SDS011;62488;-37.670;-63.532;2023-03-14T10:47:35;47.67;;;38.03;;
44036;SDS011;62488;-37.670;-63.532;2023-03-14T10:52:52;39.78;;;36.17;;
44036;SDS011;62488;-37.670;-63.532;2023-03-14T10:55:21;43.17;;;38.80;;
44036;SDS011;62488;-37.670;-63.532;2023-03-14T10:57:50;42.38;;;38.33;;
44036;SDS011;62488;-37.670;-63.532;2023-03-14T11:00:21;42.10;;;37.47;;
44036;SDS011;62488;-37.670;-63.532;2023-03-14T11:03:03;36.08;;;32.53;;
44036;SDS011;62488;-37.670;-63.532;2023-03-14T11:05:39;41.75;;;37.83;;
44036;SDS011;62488;-37.670;-63.532;2023-03-14T11:08:12;44.65;;;39.40;;
44036;SDS011;62488;-37.670;-63.532;2023-03-14T11:11:11;45.65;;;41.40;;
44036;SDS011;62488;-37.670;-63.532;2023-03-14T11:19:43;40.75;;;36.55;;
44036;SDS011;62488;-37.670;-63.532;2023-03-14T11:22:24;40.38;;;36.97;;
44036;SDS011;62488;-37.670;-63.532;2023-03-14T11:28:41;37.22;;;34.15;;
44036;SDS011;62488;-37.670;-63.532;2023-03-14T11:30:53;38.25;;;34.75;;
44036;SDS011;62488;-37.670;-63.532;2023-03-14T11:33:27;39.45;;;35.85;;
44036;SDS011;62488;-37.670;-63.532;2023-03-14T11:36:09;37.38;;;33.92;;
44036;SDS011;62488;-37.670;-63.532;2023-03-14T11:38:49;36.00;;;32.35;;
44036;SDS011;62488;-37.670;-63.532;2023-03-14T11:41:29;36.72;;;33.63;;
44036;SDS011;62488;-37.670;-63.532;2023-03-14T11:44:04;35.17;;;32.08;;
44036;SDS011;62488;-37.670;-63.532;2023-03-14T11:52:25;32.15;;;29.25;;
44036;SDS011;62488;-37.670;-63.532;2023-03-14T11:57:29;28.02;;;25.83;;
44036;SDS011;62488;-37.670;-63.532;2023-03-14T12:10:49;27.23;;;24.90;;
44036;SDS011;62488;-37.670;-63.532;2023-03-14T12:13:19;23.83;;;22.10;;
44036;SDS011;62488;-37.670;-63.532;2023-03-14T12:15:48;26.42;;;23.85;;
44036;SDS011;62488;-37.670;-63.532;2023-03-14T12:18:26;23.00;;;20.83;;
44036;SDS011;62488;-37.670;-63.532;2023-03-14T12:21:00;21.13;;;19.33;;
44036;SDS011;62488;-37.670;-63.532;2023-03-14T12:26:20;20.83;;;19.13;;
44036;SDS011;62488;-37.670;-63.532;2023-03-14T12:28:50;20.38;;;18.55;;
44036;SDS011;62488;-37.670;-63.532;2023-03-14T12:42:02;15.18;;;13.98;;
44036;SDS011;62488;-37.670;-63.532;2023-03-14T12:44:49;12.77;;;11.63;;
44036;SDS011;62488;-37.670;-63.532;2023-03-14T12:49:44;12.50;;;11.45;;
44036;SDS011;62488;-37.670;-63.532;2023-03-14T12:52:20;13.07;;;11.85;;
44036;SDS011;62488;-37.670;-63.532;2023-03-14T12:55:06;12.57;;;11.38;;
44036;SDS011;62488;-37.670;-63.532;2023-03-14T12:57:47;11.75;;;10.85;;
44036;SDS011;62488;-37.670;-63.532;2023-03-14T13:00:21;11.35;;;10.30;;
44036;SDS011;62488;-37.670;-63.532;2023-03-14T13:03:11;10.60;;;9.88;;
44036;SDS011;62488;-37.670;-63.532;2023-03-14T13:05:51;11.75;;;10.88;;
44036;SDS011;62488;-37.670;-63.532;2023-03-14T13:11:21;13.43;;;9.32;;
44036;SDS011;62488;-37.670;-63.532;2023-03-14T13:13:52;9.25;;;8.30;;
44036;SDS011;62488;-37.670;-63.532;2023-03-14T13:16:24;8.93;;;7.63;;
44036;SDS011;62488;-37.670;-63.532;2023-03-14T13:18:59;10.35;;;9.27;;
44036;SDS011;62488;-37.670;-63.532;2023-03-14T13:21:36;7.97;;;7.28;;
44036;SDS011;62488;-37.670;-63.532;2023-03-14T13:24:06;9.25;;;6.10;;
44036;SDS011;62488;-37.670;-63.532;2023-03-14T13:26:46;8.68;;;7.97;;
44036;SDS011;62488;-37.670;-63.532;2023-03-14T13:31:54;5.32;;;4.93;;
44036;SDS011;62488;-37.670;-63.532;2023-03-14T13:34:32;4.95;;;4.45;;
44036;SDS011;62488;-37.670;-63.532;2023-03-14T13:37:00;6.30;;;5.45;;
44036;SDS011;62488;-37.670;-63.532;2023-03-14T13:39:28;5.75;;;4.20;;
44036;SDS011;62488;-37.670;-63.532;2023-03-14T13:41:59;4.18;;;3.55;;
44036;SDS011;62488;-37.670;-63.532;2023-03-14T13:44:31;4.82;;;4.38;;
44036;SDS011;62488;-37.670;-63.532;2023-03-14T13:47:09;8.60;;;4.00;;
44036;SDS011;62488;-37.670;-63.532;2023-03-14T13:49:44;7.63;;;3.15;;
44036;SDS011;62488;-37.670;-63.532;2023-03-14T13:52:30;6.63;;;3.20;;
44036;SDS011;62488;-37.670;-63.532;2023-03-14T13:55:03;3.72;;;2.97;;
44036;SDS011;62488;-37.670;-63.532;2023-03-14T13:57:48;4.47;;;3.05;;
44036;SDS011;62488;-37.670;-63.532;2023-03-14T14:02:55;19.75;;;3.63;;
44036;SDS011;62488;-37.670;-63.532;2023-03-14T14:05:25;5.63;;;3.22;;
44036;SDS011;62488;-37.670;-63.532;2023-03-14T14:07:54;4.32;;;3.08;;
44036;SDS011;62488;-37.670;-63.532;2023-03-14T14:10:22;8.30;;;3.17;;
44036;SDS011;62488;-37.670;-63.532;2023-03-14T14:12:50;3.83;;;3.53;;
44036;SDS011;62488;-37.670;-63.532;2023-03-14T14:15:27;4.45;;;2.97;;
44036;SDS011;62488;-37.670;-63.532;2023-03-14T14:17:58;7.13;;;2.40;;
44036;SDS011;62488;-37.670;-63.532;2023-03-14T14:20:37;22.90;;;3.28;;
44036;SDS011;62488;-37.670;-63.532;2023-03-14T14:23:16;3.13;;;2.83;;
44036;SDS011;62488;-37.670;-63.532;2023-03-14T14:25:51;9.50;;;3.35;;
44036;SDS011;62488;-37.670;-63.532;2023-03-14T14:31:04;4.45;;;3.15;;
44036;SDS011;62488;-37.670;-63.532;2023-03-14T14:33:54;3.13;;;2.65;;
44036;SDS011;62488;-37.670;-63.532;2023-03-14T14:41:43;4.20;;;2.97;;
44036;SDS011;62488;-37.670;-63.532;2023-03-14T14:44:13;4.10;;;2.65;;
44036;SDS011;62488;-37.670;-63.532;2023-03-14T14:46:49;3.47;;;2.92;;
44036;SDS011;62488;-37.670;-63.532;2023-03-14T14:49:18;4.00;;;2.80;;
44036;SDS011;62488;-37.670;-63.532;2023-03-14T14:51:49;3.95;;;2.83;;
44036;SDS011;62488;-37.670;-63.532;2023-03-14T14:54:18;2.92;;;2.30;;
44036;SDS011;62488;-37.670;-63.532;2023-03-14T14:57:01;2.97;;;2.40;;
44036;SDS011;62488;-37.670;-63.532;2023-03-14T14:59:29;2.60;;;2.40;;
44036;SDS011;62488;-37.670;-63.532;2023-03-14T15:01:57;2.97;;;2.22;;
44036;SDS011;62488;-37.670;-63.532;2023-03-14T15:04:26;5.32;;;2.00;;
44036;SDS011;62488;-37.670;-63.532;2023-03-14T15:06:56;2.92;;;1.98;;
44036;SDS011;62488;-37.670;-63.532;2023-03-14T15:09:23;10.90;;;2.95;;
44036;SDS011;62488;-37.670;-63.532;2023-03-14T15:11:50;3.05;;;2.00;;
44036;SDS011;62488;-37.670;-63.532;2023-03-14T15:14:17;3.65;;;2.05;;
44036;SDS011;62488;-37.670;-63.532;2023-03-14T15:16:44;6.43;;;2.50;;
44036;SDS011;62488;-37.670;-63.532;2023-03-14T15:19:21;4.10;;;2.35;;
44036;SDS011;62488;-37.670;-63.532;2023-03-14T15:21:52;3.45;;;2.00;;
44036;SDS011;62488;-37.670;-63.532;2023-03-14T15:24:19;3.42;;;2.00;;
44036;SDS011;62488;-37.670;-63.532;2023-03-14T15:26:46;3.67;;;2.00;;
44036;SDS011;62488;-37.670;-63.532;2023-03-14T15:29:13;5.50;;;2.30;;
44036;SDS011;62488;-37.670;-63.532;2023-03-14T15:31:40;2.58;;;1.95;;
44036;SDS011;62488;-37.670;-63.532;2023-03-14T15:34:11;2.47;;;2.08;;
44036;SDS011;62488;-37.670;-63.532;2023-03-14T15:36:38;2.75;;;2.10;;
44036;SDS011;62488;-37.670;-63.532;2023-03-14T15:39:06;4.97;;;2.30;;
44036;SDS011;62488;-37.670;-63.532;2023-03-14T15:41:33;6.22;;;2.55;;
44036;SDS011;62488;-37.670;-63.532;2023-03-14T15:44:00;4.70;;;3.20;;
44036;SDS011;62488;-37.670;-63.532;2023-03-14T15:46:27;3.30;;;2.60;;
44036;SDS011;62488;-37.670;-63.532;2023-03-14T15:48:54;7.72;;;2.83;;
44036;SDS011;62488;-37.670;-63.532;2023-03-14T15:51:21;4.15;;;2.75;;
44036;SDS011;62488;-37.670;-63.532;2023-03-14T15:53:48;5.28;;;2.70;;
44036;SDS011;62488;-37.670;-63.532;2023-03-14T15:56:17;2.58;;;2.38;;
44036;SDS011;62488;-37.670;-63.532;2023-03-14T15:58:45;3.28;;;2.90;;
44036;SDS011;62488;-37.670;-63.532;2023-03-14T16:01:13;6.35;;;3.30;;
44036;SDS011;62488;-37.670;-63.532;2023-03-14T16:03:41;13.57;;;3.65;;
44036;SDS011;62488;-37.670;-63.532;2023-03-14T16:06:12;6.40;;;2.88;;
44036;SDS011;62488;-37.670;-63.532;2023-03-14T16:08:39;3.08;;;2.55;;
44036;SDS011;62488;-37.670;-63.532;2023-03-14T16:11:08;2.47;;;2.28;;
44036;SDS011;62488;-37.670;-63.532;2023-03-14T16:13:37;3.78;;;2.90;;
44036;SDS011;62488;-37.670;-63.532;2023-03-14T16:16:04;6.60;;;4.38;;
44036;SDS011;62488;-37.670;-63.532;2023-03-14T16:18:33;4.03;;;3.20;;